Time;durP1;ratioP1;P1;durP2;ratioP2;P2;SDS_P1;SDS_P2;PMS_P1;PMS_P2;Temp;Humidity;BMP_temperature;BMP_pressure;BME280_temperature;BME280_humidity;BME280_pressure;Samples;Min_cycle;Max_cycle;Signal;HPM_P1;HPM_P2
2022/03/28 00:00:55;;;;;;;17.20;4.95;;;6.20;99.90;;;;;;5056088;28;20587;-61
2022/03/28 00:03:21;;;;;;;16.83;5.00;;;6.10;99.90;;;;;;5055145;28;20112;-61
2022/03/28 00:05:46;;;;;;;13.10;5.05;;;6.00;99.90;;;;;;5060675;28;20023;-61
2022/03/28 00:08:12;;;;;;;15.60;5.43;;;6.10;99.90;;;;;;5052901;28;20021;-60
2022/03/28 00:10:38;;;;;;;16.67;5.20;;;5.90;99.90;;;;;;5056677;28;20069;-61
2022/03/28 00:13:03;;;;;;;16.92;5.72;;;5.90;99.90;;;;;;5058337;28;20033;-60
2022/03/28 00:15:29;;;;;;;14.77;5.97;;;5.80;99.90;;;;;;5059087;28;20404;-61
2022/03/28 00:17:55;;;;;;;16.17;5.20;;;5.80;99.90;;;;;;5060971;28;20013;-61
2022/03/28 00:20:20;;;;;;;14.70;4.75;;;5.80;99.90;;;;;;5055743;28;20024;-61
2022/03/28 00:22:46;;;;;;;14.68;5.70;;;5.70;99.90;;;;;;5052662;28;20021;-60
2022/03/28 00:25:12;;;;;;;12.98;5.30;;;5.70;99.90;;;;;;5058630;28;20078;-61
2022/03/28 00:27:38;;;;;;;16.05;6.07;;;5.70;99.90;;;;;;5056256;28;20025;-61
2022/03/28 00:30:06;;;;;;;15.35;4.35;;;5.70;99.90;;;;;;5055129;28;20056;-62
2022/03/28 00:32:32;;;;;;;20.52;5.75;;;5.70;99.90;;;;;;5058062;28;20079;-61
2022/03/28 00:34:58;;;;;;;12.88;4.78;;;5.70;99.90;;;;;;5042906;28;20475;-60
2022/03/28 00:37:24;;;;;;;11.82;5.65;;;5.70;99.90;;;;;;5054094;28;20106;-61
2022/03/28 00:39:50;;;;;;;11.43;5.30;;;5.70;99.90;;;;;;5058810;28;20044;-61
2022/03/28 00:42:15;;;;;;;22.23;6.07;;;5.70;99.90;;;;;;5058976;28;20016;-61
2022/03/28 00:44:41;;;;;;;13.30;5.05;;;5.70;99.90;;;;;;5054797;28;20033;-61
2022/03/28 00:47:07;;;;;;;13.63;4.70;;;5.70;99.90;;;;;;5062679;28;20055;-61
2022/03/28 00:49:32;;;;;;;13.13;5.50;;;5.90;99.90;;;;;;5059459;28;20028;-61
2022/03/28 00:51:59;;;;;;;11.18;4.88;;;5.90;99.90;;;;;;5042248;28;20056;-61
2022/03/28 00:54:24;;;;;;;11.13;4.50;;;5.80;99.90;;;;;;5039754;28;20087;-61
2022/03/28 00:56:50;;;;;;;13.07;4.65;;;5.70;99.90;;;;;;5044719;28;20059;-61
2022/03/28 00:59:17;;;;;;;18.08;5.25;;;5.70;99.90;;;;;;5042429;28;20028;-61
2022/03/28 01:01:45;;;;;;;19.45;6.30;;;5.70;99.90;;;;;;5055293;28;20028;-61
2022/03/28 01:04:11;;;;;;;11.93;4.50;;;5.60;99.90;;;;;;5054960;28;20051;-61
2022/03/28 01:06:37;;;;;;;13.10;4.93;;;5.50;99.90;;;;;;5055869;28;20083;-61
2022/03/28 01:09:04;;;;;;;18.70;5.65;;;5.50;99.90;;;;;;5061807;28;20075;-61
2022/03/28 01:11:32;;;;;;;19.00;6.63;;;5.40;99.90;;;;;;5050184;28;20098;-61
2022/03/28 01:13:59;;;;;;;14.52;4.93;;;5.40;99.90;;;;;;5053791;28;20029;-61
2022/03/28 01:16:28;;;;;;;14.48;4.68;;;5.50;99.90;;;;;;5059317;28;20029;-61
2022/03/28 01:18:54;;;;;;;9.87;4.20;;;5.60;99.90;;;;;;5059341;28;20033;-61
2022/03/28 01:21:20;;;;;;;11.38;4.50;;;5.70;99.90;;;;;;5058927;28;20032;-61
2022/03/28 01:23:46;;;;;;;19.35;6.47;;;5.70;99.90;;;;;;5039454;28;20032;-61
2022/03/28 01:26:14;;;;;;;12.75;5.20;;;5.60;99.90;;;;;;5054328;28;20040;-61
2022/03/28 01:28:40;;;;;;;20.40;5.72;;;5.50;99.90;;;;;;5056507;28;20029;-60
2022/03/28 01:31:07;;;;;;;20.52;4.70;;;5.50;99.90;;;;;;5054151;28;20040;-60
2022/03/28 01:33:34;;;;;;;19.02;5.07;;;5.40;99.90;;;;;;5040740;28;20254;-61
2022/03/28 01:36:00;;;;;;;17.75;5.55;;;5.40;99.90;;;;;;5056273;28;20108;-61
2022/03/28 01:38:25;;;;;;;13.32;5.55;;;5.50;99.90;;;;;;5057349;28;20056;-61
2022/03/28 01:40:52;;;;;;;15.90;4.95;;;5.50;99.90;;;;;;5056683;28;20033;-61
2022/03/28 01:43:20;;;;;;;11.35;4.90;;;5.40;99.90;;;;;;5052818;28;20028;-61
2022/03/28 01:45:45;;;;;;;18.63;5.75;;;5.40;99.90;;;;;;5057169;28;20024;-61
2022/03/28 01:48:11;;;;;;;15.07;4.43;;;5.30;99.90;;;;;;5058682;28;20040;-61
2022/03/28 01:50:37;;;;;;;12.05;5.65;;;5.30;99.90;;;;;;5054061;28;20573;-61
2022/03/28 01:53:04;;;;;;;16.48;4.72;;;5.30;99.90;;;;;;5033872;28;20033;-61
2022/03/28 01:55:30;;;;;;;12.43;4.72;;;5.30;99.90;;;;;;5059268;28;20036;-61
2022/03/28 01:57:56;;;;;;;13.10;5.35;;;5.30;99.90;;;;;;5061682;28;20027;-61
2022/03/28 02:00:25;;;;;;;15.20;5.65;;;5.20;99.90;;;;;;5057235;28;20391;-61
2022/03/28 02:02:51;;;;;;;13.20;5.97;;;5.20;99.90;;;;;;5055777;28;20013;-61
2022/03/28 02:05:17;;;;;;;18.35;5.40;;;5.20;99.90;;;;;;5052359;28;20052;-61
2022/03/28 02:07:49;;;;;;;16.83;5.43;;;5.20;99.90;;;;;;5053890;28;20025;-61
2022/03/28 02:10:17;;;;;;;11.82;5.45;;;5.30;99.90;;;;;;5051554;28;20029;-60
2022/03/28 02:12:43;;;;;;;10.80;4.50;;;5.10;99.90;;;;;;5054080;28;20078;-61
2022/03/28 02:15:10;;;;;;;25.75;5.13;;;5.00;99.90;;;;;;5053622;28;20025;-60
2022/03/28 02:17:37;;;;;;;12.68;5.00;;;5.00;99.90;;;;;;5043139;28;20020;-60
2022/03/28 02:20:08;;;;;;;14.60;6.28;;;5.00;99.90;;;;;;5057409;28;20104;-61
2022/03/28 02:22:37;;;;;;;15.68;4.90;;;5.00;99.90;;;;;;5058277;28;20075;-61
2022/03/28 02:25:05;;;;;;;15.85;5.25;;;4.90;99.90;;;;;;5053193;28;20053;-60
2022/03/28 02:27:31;;;;;;;19.08;5.15;;;4.80;99.90;;;;;;5053952;28;20039;-61
2022/03/28 02:29:56;;;;;;;13.02;4.45;;;4.90;99.90;;;;;;5054078;28;20082;-60
2022/03/28 02:32:22;;;;;;;15.27;5.13;;;4.90;99.90;;;;;;5038699;28;20029;-60
2022/03/28 02:34:48;;;;;;;12.30;4.43;;;4.90;99.90;;;;;;5054318;28;20029;-60
2022/03/28 02:37:14;;;;;;;11.05;4.30;;;4.90;99.90;;;;;;5054197;28;20061;-61
2022/03/28 02:39:39;;;;;;;14.43;4.75;;;4.90;99.90;;;;;;5052012;28;20032;-61
2022/03/28 02:42:05;;;;;;;10.07;3.58;;;4.90;99.90;;;;;;5059024;28;20063;-60
2022/03/28 02:44:31;;;;;;;13.75;5.10;;;4.80;99.90;;;;;;5052640;28;20530;-61
2022/03/28 02:46:57;;;;;;;12.05;4.82;;;4.90;99.90;;;;;;5059171;28;20021;-61
2022/03/28 02:49:23;;;;;;;12.40;4.70;;;5.20;99.90;;;;;;5044575;28;20120;-61
2022/03/28 02:51:48;;;;;;;16.85;3.95;;;5.20;99.90;;;;;;5053404;28;20036;-61
2022/03/28 02:54:14;;;;;;;15.00;4.47;;;5.20;99.90;;;;;;5052240;28;20388;-60
2022/03/28 02:56:40;;;;;;;14.25;4.85;;;5.10;99.90;;;;;;5057272;28;20025;-60
2022/03/28 02:59:05;;;;;;;15.15;4.63;;;5.00;99.90;;;;;;5057432;28;20105;-60
2022/03/28 03:01:31;;;;;;;13.55;4.25;;;4.90;99.90;;;;;;5057392;28;20054;-60
2022/03/28 03:03:57;;;;;;;10.85;4.55;;;4.70;99.90;;;;;;5056791;28;20562;-61
2022/03/28 03:06:22;;;;;;;12.10;4.63;;;4.50;99.90;;;;;;5057354;28;20018;-60
2022/03/28 03:08:50;;;;;;;11.70;4.45;;;4.80;99.90;;;;;;5053987;28;20033;-61
2022/03/28 03:11:16;;;;;;;21.60;5.55;;;4.80;99.90;;;;;;5053690;28;20050;-60
2022/03/28 03:13:41;;;;;;;12.30;3.65;;;4.80;99.90;;;;;;5054261;28;20548;-61
2022/03/28 03:16:07;;;;;;;19.23;5.22;;;4.80;99.90;;;;;;5050174;28;20059;-61
2022/03/28 03:18:32;;;;;;;10.88;4.75;;;4.90;99.90;;;;;;5052956;28;20043;-60
2022/03/28 03:21:01;;;;;;;11.93;4.05;;;4.70;99.90;;;;;;5052455;28;20488;-60
2022/03/28 03:23:27;;;;;;;9.63;3.55;;;4.70;99.90;;;;;;5021547;28;20039;-60
2022/03/28 03:25:53;;;;;;;12.20;3.97;;;4.70;99.90;;;;;;5060961;28;20086;-60
2022/03/28 03:28:20;;;;;;;12.80;4.85;;;4.80;99.90;;;;;;5059037;28;20028;-61
2022/03/28 03:30:48;;;;;;;13.20;4.38;;;4.70;99.90;;;;;;5053667;28;20036;-60
2022/03/28 03:33:14;;;;;;;18.70;5.57;;;4.60;99.90;;;;;;5054382;28;20040;-61
2022/03/28 03:35:40;;;;;;;16.17;4.20;;;4.60;99.90;;;;;;5053856;28;20103;-60
2022/03/28 03:38:06;;;;;;;16.55;4.80;;;4.50;99.90;;;;;;5060016;28;20773;-60
2022/03/28 03:40:32;;;;;;;12.68;4.93;;;4.60;99.90;;;;;;5057979;28;20032;-60
2022/03/28 03:42:58;;;;;;;24.45;5.78;;;4.50;99.90;;;;;;5055433;28;20112;-60
2022/03/28 03:45:24;;;;;;;10.57;4.25;;;4.40;99.90;;;;;;5038095;28;20127;-61
2022/03/28 03:47:50;;;;;;;13.50;4.45;;;4.50;99.90;;;;;;5056184;28;20124;-60
2022/03/28 03:50:16;;;;;;;11.18;4.68;;;4.40;99.90;;;;;;5063115;28;20017;-60
2022/03/28 03:52:42;;;;;;;11.15;3.42;;;4.50;99.90;;;;;;5059879;28;20479;-61
2022/03/28 03:55:08;;;;;;;11.00;4.55;;;4.60;99.90;;;;;;5055304;28;20103;-60
2022/03/28 03:57:34;;;;;;;12.63;4.05;;;4.60;99.90;;;;;;5060751;28;20403;-61
2022/03/28 03:59:59;;;;;;;18.95;3.75;;;4.50;99.90;;;;;;5052007;28;20128;-61
2022/03/28 04:02:25;;;;;;;14.02;4.25;;;4.40;99.90;;;;;;5062813;28;20082;-60
2022/03/28 04:04:50;;;;;;;18.35;4.72;;;4.40;99.90;;;;;;5056038;28;20452;-61
2022/03/28 04:07:16;;;;;;;16.67;4.13;;;4.40;99.90;;;;;;5057197;28;20029;-60
2022/03/28 04:09:41;;;;;;;15.50;3.97;;;4.60;99.90;;;;;;5060131;28;20028;-60
2022/03/28 04:12:08;;;;;;;20.83;3.95;;;4.60;99.90;;;;;;5053746;28;20495;-60
2022/03/28 04:14:34;;;;;;;15.13;4.30;;;4.50;99.90;;;;;;5053383;28;20408;-60
2022/03/28 04:17:00;;;;;;;8.60;3.90;;;4.40;99.90;;;;;;5037976;28;20035;-60
2022/03/28 04:19:25;;;;;;;12.43;3.97;;;4.20;99.90;;;;;;5064437;28;20063;-60
2022/03/28 04:21:51;;;;;;;16.50;4.13;;;4.30;99.90;;;;;;5057785;28;20028;-60
2022/03/28 04:24:17;;;;;;;20.05;4.60;;;4.20;99.90;;;;;;5060272;28;20031;-60
2022/03/28 04:26:43;;;;;;;16.38;4.72;;;4.00;99.90;;;;;;5056677;28;20028;-60
2022/03/28 04:29:09;;;;;;;14.55;4.35;;;4.00;99.90;;;;;;5057520;28;20036;-60
2022/03/28 04:31:37;;;;;;;16.45;5.72;;;4.10;99.90;;;;;;5055453;28;20555;-61
2022/03/28 04:34:03;;;;;;;16.73;5.00;;;4.00;99.90;;;;;;5053848;28;20503;-61
2022/03/28 04:36:28;;;;;;;13.25;5.32;;;4.00;99.90;;;;;;5050543;28;20020;-61
2022/03/28 04:38:54;;;;;;;22.02;4.82;;;4.00;99.90;;;;;;5049199;28;20071;-60
2022/03/28 04:41:20;;;;;;;10.55;4.00;;;4.00;99.90;;;;;;5052434;28;20716;-60
2022/03/28 04:43:45;;;;;;;12.40;4.57;;;4.20;99.90;;;;;;5054828;28;20146;-61
2022/03/28 04:46:11;;;;;;;14.07;4.30;;;4.10;99.90;;;;;;5059186;28;20025;-60
2022/03/28 04:48:37;;;;;;;13.07;5.13;;;4.00;99.90;;;;;;5059134;28;20081;-61
2022/03/28 04:51:03;;;;;;;13.23;4.55;;;4.00;99.90;;;;;;5059503;28;20025;-61
2022/03/28 04:53:28;;;;;;;22.88;4.00;;;4.00;99.90;;;;;;5036611;28;20487;-61
2022/03/28 04:55:54;;;;;;;12.70;3.97;;;3.90;99.90;;;;;;5056631;28;20132;-60
2022/03/28 04:58:19;;;;;;;12.50;4.45;;;3.90;99.90;;;;;;5044998;28;20499;-60
2022/03/28 05:00:45;;;;;;;16.67;4.57;;;4.00;99.90;;;;;;5056668;28;20040;-61
2022/03/28 05:03:11;;;;;;;22.08;4.47;;;4.30;99.90;;;;;;5058488;28;20029;-60
2022/03/28 05:05:36;;;;;;;16.60;4.93;;;4.40;99.90;;;;;;5058682;28;20024;-61
2022/03/28 05:08:02;;;;;;;14.18;4.57;;;4.40;99.90;;;;;;5061651;28;20028;-60
2022/03/28 05:10:27;;;;;;;12.32;4.93;;;4.30;99.90;;;;;;5054784;28;20032;-61
2022/03/28 05:12:53;;;;;;;14.55;4.25;;;4.30;99.90;;;;;;5055426;28;20021;-60
2022/03/28 05:15:19;;;;;;;10.27;3.92;;;4.20;99.90;;;;;;5038229;28;20082;-61
2022/03/28 05:17:44;;;;;;;13.27;4.78;;;4.20;99.90;;;;;;5055446;28;20027;-60
2022/03/28 05:20:10;;;;;;;11.48;3.83;;;4.20;99.90;;;;;;5053720;28;20374;-61
2022/03/28 05:22:36;;;;;;;11.95;4.07;;;4.10;99.90;;;;;;5048143;28;20025;-61
2022/03/28 05:25:02;;;;;;;7.75;4.03;;;4.10;99.90;;;;;;5056934;28;20024;-61
2022/03/28 05:27:28;;;;;;;16.98;4.88;;;4.10;99.90;;;;;;5052517;28;20021;-61
2022/03/28 05:29:54;;;;;;;13.15;4.68;;;4.10;99.90;;;;;;5054766;28;20036;-60
2022/03/28 05:32:20;;;;;;;10.93;4.45;;;4.00;99.90;;;;;;5051194;28;20576;-60
2022/03/28 05:34:46;;;;;;;11.23;3.97;;;4.00;99.90;;;;;;5034291;28;20028;-61
2022/03/28 05:37:17;;;;;;;10.00;4.00;;;4.00;99.90;;;;;;5057595;28;20044;-61
2022/03/28 05:39:48;;;;;;;10.77;3.38;;;4.00;99.90;;;;;;5060108;28;20581;-60
2022/03/28 05:42:16;;;;;;;10.32;4.00;;;4.10;99.90;;;;;;5061912;28;20069;-60
2022/03/28 05:44:42;;;;;;;11.02;4.10;;;4.10;99.90;;;;;;5052411;28;20039;-61
2022/03/28 05:47:09;;;;;;;15.52;4.75;;;4.20;99.90;;;;;;5042606;28;20040;-61
2022/03/28 05:49:35;;;;;;;10.13;4.55;;;4.30;99.90;;;;;;5057286;28;20056;-61
2022/03/28 05:52:00;;;;;;;12.60;4.15;;;4.30;99.90;;;;;;5054112;28;20114;-61
2022/03/28 05:54:26;;;;;;;13.13;4.13;;;4.30;99.90;;;;;;5056293;28;20166;-60
2022/03/28 05:56:52;;;;;;;13.70;4.65;;;4.30;99.90;;;;;;5055173;28;20037;-61
2022/03/28 05:59:18;;;;;;;13.77;4.80;;;4.40;99.90;;;;;;5050800;28;20432;-61
2022/03/28 06:01:43;;;;;;;19.65;6.32;;;4.50;99.90;;;;;;5052162;28;20472;-61
2022/03/28 06:04:09;;;;;;;12.90;4.65;;;4.60;99.90;;;;;;5057973;28;20025;-61
2022/03/28 06:06:35;;;;;;;14.93;4.15;;;4.70;99.90;;;;;;5056531;28;20031;-61
2022/03/28 06:09:01;;;;;;;12.70;3.75;;;4.80;99.90;;;;;;5055944;28;20024;-61
2022/03/28 06:11:26;;;;;;;19.45;5.50;;;4.90;99.90;;;;;;5052945;28;20150;-61
2022/03/28 06:13:53;;;;;;;19.05;5.32;;;4.90;99.90;;;;;;5053514;28;20108;-60
2022/03/28 06:16:19;;;;;;;15.90;4.30;;;4.90;99.90;;;;;;5049612;28;20182;-61
2022/03/28 06:18:45;;;;;;;8.98;4.55;;;4.90;99.90;;;;;;5052147;28;20107;-61
2022/03/28 06:21:11;;;;;;;19.85;5.07;;;5.00;99.90;;;;;;5054375;28;20055;-61
2022/03/28 06:23:36;;;;;;;14.68;4.13;;;5.00;99.90;;;;;;5055921;28;20108;-61
2022/03/28 06:26:04;;;;;;;13.85;4.97;;;5.10;99.90;;;;;;5056655;28;20029;-61
2022/03/28 06:28:30;;;;;;;12.40;4.72;;;5.30;99.90;;;;;;5055593;28;20179;-61
2022/03/28 06:30:57;;;;;;;16.10;5.00;;;5.30;99.90;;;;;;5048401;28;20116;-60
2022/03/28 06:33:23;;;;;;;17.77;4.25;;;5.50;99.90;;;;;;5044440;28;20028;-60
2022/03/28 06:35:49;;;;;;;15.82;6.05;;;5.60;99.90;;;;;;5052267;28;20035;-61
2022/03/28 06:38:15;;;;;;;17.23;5.60;;;5.70;99.90;;;;;;5051639;28;20040;-61
2022/03/28 06:40:41;;;;;;;19.70;6.43;;;5.80;99.90;;;;;;5047379;28;20085;-61
2022/03/28 06:43:06;;;;;;;18.60;6.93;;;5.90;99.90;;;;;;5049262;28;20032;-61
2022/03/28 06:45:36;;;;;;;29.65;5.03;;;6.00;99.90;;;;;;5054262;28;20456;-61
2022/03/28 06:48:03;;;;;;;18.20;5.03;;;6.10;99.90;;;;;;5053857;28;20025;-61
2022/03/28 06:50:28;;;;;;;15.73;5.15;;;6.20;99.90;;;;;;5054117;28;20024;-61
2022/03/28 06:52:54;;;;;;;23.27;5.28;;;6.30;99.90;;;;;;5058737;28;20054;-61
2022/03/28 06:55:20;;;;;;;38.83;6.72;;;6.40;99.90;;;;;;5053637;28;20037;-61
2022/03/28 06:57:46;;;;;;;15.40;6.03;;;6.60;99.90;;;;;;5053589;28;20903;-61
2022/03/28 07:00:13;;;;;;;16.48;6.05;;;6.70;99.90;;;;;;5066610;28;20104;-61
2022/03/28 07:02:39;;;;;;;14.57;6.20;;;7.00;99.90;;;;;;5065003;28;20024;-60
2022/03/28 07:05:06;;;;;;;16.95;6.35;;;7.20;99.90;;;;;;5064514;28;20932;-60
2022/03/28 07:07:39;;;;;;;14.90;5.95;;;7.40;99.90;;;;;;5062987;28;20023;-61
2022/03/28 07:10:06;;;;;;;13.75;6.03;;;7.50;99.90;;;;;;5065837;28;20025;-61
2022/03/28 07:12:31;;;;;;;14.85;6.03;;;7.50;99.90;;;;;;5064434;28;20037;-61
2022/03/28 07:14:57;;;;;;;26.83;6.93;;;7.60;99.90;;;;;;5062292;28;20079;-61
2022/03/28 07:17:22;;;;;;;20.45;7.22;;;7.80;99.90;;;;;;5063631;28;20056;-61
2022/03/28 07:19:48;;;;;;;15.75;7.00;;;7.90;99.90;;;;;;5044137;28;20191;-60
2022/03/28 07:22:13;;;;;;;18.55;5.93;;;8.10;99.90;;;;;;5063693;28;20040;-61
2022/03/28 07:24:39;;;;;;;24.67;8.07;;;8.30;99.90;;;;;;5054522;28;20029;-61
2022/03/28 07:27:04;;;;;;;22.10;7.78;;;8.60;99.90;;;;;;5059769;28;20051;-61
2022/03/28 07:29:30;;;;;;;21.40;7.20;;;8.70;99.90;;;;;;5055775;28;20066;-61
2022/03/28 07:31:56;;;;;;;27.08;6.88;;;8.90;99.90;;;;;;5044249;28;20036;-61
2022/03/28 07:34:32;;;;;;;24.35;7.22;;;9.10;99.90;;;;;;5062939;28;20722;-61
2022/03/28 07:36:59;;;;;;;20.02;7.78;;;9.40;99.90;;;;;;5061928;28;20793;-60
2022/03/28 07:39:25;;;;;;;23.10;7.55;;;9.40;99.90;;;;;;5038442;28;20044;-60
2022/03/28 07:41:52;;;;;;;19.27;6.95;;;9.60;99.90;;;;;;5061313;28;20032;-61
2022/03/28 07:44:18;;;;;;;21.27;6.50;;;9.70;99.90;;;;;;5064242;28;20791;-61
2022/03/28 07:46:45;;;;;;;33.30;9.57;;;9.90;99.90;;;;;;5060708;28;20028;-61
2022/03/28 07:49:16;;;;;;;27.67;8.82;;;10.10;99.90;;;;;;5061830;28;20086;-61
2022/03/28 07:51:42;;;;;;;30.33;9.15;;;10.20;99.90;;;;;;5062998;28;20071;-61
2022/03/28 07:54:07;;;;;;;18.35;7.45;;;10.40;99.90;;;;;;5060806;28;20032;-61
2022/03/28 07:56:33;;;;;;;34.17;9.27;;;10.60;99.90;;;;;;5060130;28;20231;-61
2022/03/28 07:58:59;;;;;;;18.30;6.68;;;10.80;99.90;;;;;;5043822;28;20055;-61
2022/03/28 08:01:25;;;;;;;28.77;8.68;;;11.00;99.90;;;;;;5060150;28;20036;-61
2022/03/28 08:03:51;;;;;;;20.35;8.07;;;11.20;99.90;;;;;;5058286;28;20028;-61
2022/03/28 08:06:17;;;;;;;18.33;7.00;;;11.30;99.90;;;;;;5058318;28;20025;-61
2022/03/28 08:08:42;;;;;;;24.83;7.00;;;11.40;99.90;;;;;;5057825;28;20395;-61
2022/03/28 08:11:09;;;;;;;22.85;6.68;;;11.50;99.90;;;;;;5058649;28;20472;-61
2022/03/28 08:13:35;;;;;;;16.73;5.75;;;11.60;99.90;;;;;;5060152;28;20024;-61
2022/03/28 08:16:01;;;;;;;25.20;7.30;;;11.50;99.90;;;;;;5059252;28;20119;-61
2022/03/28 08:18:27;;;;;;;17.00;7.18;;;11.60;99.90;;;;;;5061011;28;20512;-61
2022/03/28 08:20:53;;;;;;;17.88;6.57;;;11.60;99.90;;;;;;5061364;28;20021;-61
2022/03/28 08:23:22;;;;;;;21.08;7.07;;;11.70;99.90;;;;;;5064507;28;20020;-61
2022/03/28 08:25:49;;;;;;;16.80;5.97;;;11.90;99.90;;;;;;5061148;28;20074;-61
2022/03/28 08:28:15;;;;;;;18.02;6.57;;;12.00;99.90;;;;;;5062182;28;20396;-61
2022/03/28 08:30:41;;;;;;;17.90;6.18;;;12.40;99.90;;;;;;5062070;28;21537;-61
2022/03/28 08:33:07;;;;;;;16.73;6.88;;;12.90;99.90;;;;;;5044513;28;20070;-61
2022/03/28 08:35:32;;;;;;;18.98;6.32;;;13.30;99.90;;;;;;5057983;28;20488;-61
2022/03/28 08:37:58;;;;;;;16.05;5.18;;;13.80;99.90;;;;;;5060431;28;20045;-61
2022/03/28 08:40:24;;;;;;;16.40;6.82;;;14.10;99.90;;;;;;5061569;28;20049;-60
2022/03/28 08:42:50;;;;;;;18.77;6.53;;;14.40;99.90;;;;;;5059616;28;20664;-60
2022/03/28 08:45:16;;;;;;;18.23;5.45;;;15.00;99.90;;;;;;5058737;28;20024;-61
2022/03/28 08:47:47;;;;;;;20.45;4.95;;;15.30;99.90;;;;;;5060001;28;20515;-60
2022/03/28 08:50:14;;;;;;;17.23;6.03;;;16.00;99.90;;;;;;5060703;28;20024;-60
2022/03/28 08:52:43;;;;;;;18.38;6.07;;;16.20;99.90;;;;;;5060504;28;20476;-60
2022/03/28 08:55:13;;;;;;;20.23;6.68;;;16.60;99.90;;;;;;5059872;28;20403;-61
2022/03/28 08:57:39;;;;;;;18.38;5.75;;;16.50;99.90;;;;;;5058068;28;20031;-60
2022/03/28 09:00:08;;;;;;;16.27;6.05;;;18.20;99.90;;;;;;5058029;28;20041;-61
2022/03/28 09:02:43;;;;;;;17.70;4.93;;;18.70;99.90;;;;;;5060711;28;20033;-61
2022/03/28 09:05:10;;;;;;;21.98;5.50;;;18.70;99.50;;;;;;5058888;28;20141;-60
2022/03/28 09:07:35;;;;;;;15.02;5.15;;;18.30;99.90;;;;;;5058708;28;20031;-60
2022/03/28 09:10:07;;;;;;;19.17;5.65;;;18.60;98.90;;;;;;5060274;28;20036;-61
2022/03/28 09:12:39;;;;;;;19.60;5.72;;;18.90;99.20;;;;;;5062787;28;20040;-61
2022/03/28 09:15:09;;;;;;;14.13;5.05;;;18.50;98.70;;;;;;5057061;28;20237;-60
2022/03/28 09:17:38;;;;;;;15.93;5.88;;;19.20;98.00;;;;;;5057064;28;20473;-60
2022/03/28 09:20:04;;;;;;;15.30;5.43;;;18.50;98.20;;;;;;5057994;28;20047;-60
2022/03/28 09:22:32;;;;;;;15.35;5.68;;;17.90;99.60;;;;;;5060154;28;20024;-61
2022/03/28 09:25:02;;;;;;;20.33;5.63;;;18.70;98.70;;;;;;5060572;28;20832;-60
2022/03/28 09:27:30;;;;;;;17.25;5.15;;;19.30;97.90;;;;;;5061207;28;20034;-60
2022/03/28 09:30:04;;;;;;;16.85;5.75;;;19.50;96.90;;;;;;5060570;28;20113;-61
2022/03/28 09:32:32;;;;;;;19.13;6.70;;;20.00;96.40;;;;;;5060425;28;20029;-61
2022/03/28 09:35:12;;;;;;;18.60;6.38;;;20.30;96.20;;;;;;5060150;28;20578;-60
2022/03/28 09:38:04;;;;;;;16.70;5.93;;;18.60;97.90;;;;;;5059228;28;20888;-60
2022/03/28 09:40:45;;;;;;;17.88;6.82;;;20.40;95.70;;;;;;5059033;28;20127;-60
2022/03/28 09:43:30;;;;;;;17.23;6.80;;;20.10;94.90;;;;;;5063253;28;20028;-60
2022/03/28 09:45:58;;;;;;;18.48;6.65;;;18.80;96.70;;;;;;5058119;28;20742;-61
2022/03/28 09:48:28;;;;;;;19.60;6.78;;;19.40;97.00;;;;;;5060082;28;20447;-61
2022/03/28 09:51:05;;;;;;;16.73;5.97;;;20.20;95.10;;;;;;5058339;28;20375;-61
2022/03/28 09:53:38;;;;;;;19.30;6.03;;;20.20;95.00;;;;;;5062131;28;20574;-60
2022/03/28 09:56:09;;;;;;;22.23;6.78;;;20.20;94.30;;;;;;5061512;28;20052;-60
2022/03/28 09:58:46;;;;;;;17.77;5.40;;;19.90;94.40;;;;;;5060171;28;20059;-60
2022/03/28 10:01:43;;;;;;;18.27;6.75;;;20.30;93.90;;;;;;5051757;28;20047;-60
2022/03/28 10:04:11;;;;;;;19.55;6.93;;;19.70;94.90;;;;;;5025937;28;20047;-61
2022/03/28 10:06:39;;;;;;;18.63;6.88;;;19.30;95.60;;;;;;5058759;28;20028;-61
2022/03/28 10:09:06;;;;;;;21.83;7.45;;;18.70;97.30;;;;;;5060926;28;20071;-60
2022/03/28 10:11:32;;;;;;;17.80;6.82;;;19.00;96.80;;;;;;5058571;28;20086;-62
2022/03/28 10:13:58;;;;;;;18.67;6.22;;;20.40;94.50;;;;;;5036095;28;20411;-61
2022/03/28 10:16:24;;;;;;;19.55;7.60;;;21.30;93.60;;;;;;5050700;28;20129;-61
2022/03/28 10:18:51;;;;;;;23.02;7.70;;;20.80;93.30;;;;;;5055932;28;20578;-61
2022/03/28 10:21:24;;;;;;;17.90;7.35;;;20.10;94.40;;;;;;5060969;28;20028;-61
2022/03/28 10:24:04;;;;;;;18.15;6.15;;;20.90;93.00;;;;;;5061029;28;20038;-62
2022/03/28 10:26:33;;;;;;;17.17;5.90;;;20.40;94.00;;;;;;5061493;28;20051;-61
2022/03/28 10:29:00;;;;;;;19.85;6.82;;;22.40;91.80;;;;;;5058274;28;20052;-61
2022/03/28 10:31:26;;;;;;;18.20;6.93;;;22.20;90.40;;;;;;5040386;28;20067;-61
2022/03/28 10:33:53;;;;;;;20.08;7.05;;;21.20;91.80;;;;;;5060611;28;20059;-61
2022/03/28 10:36:30;;;;;;;18.63;7.03;;;21.60;91.10;;;;;;5062240;28;20029;-61
2022/03/28 10:39:36;;;;;;;19.27;7.22;;;21.60;91.30;;;;;;5053236;28;20106;-61
2022/03/28 10:42:16;;;;;;;24.75;8.40;;;22.40;90.30;;;;;;5055395;28;20025;-61
2022/03/28 10:44:57;;;;;;;18.42;7.00;;;21.10;91.30;;;;;;5060065;28;20403;-61
2022/03/28 10:47:52;;;;;;;16.27;5.53;;;22.40;90.20;;;;;;5060412;28;20113;-61
2022/03/28 10:50:27;;;;;;;23.00;7.15;;;22.80;87.40;;;;;;5052407;28;20021;-61
2022/03/28 10:53:13;;;;;;;20.88;7.82;;;23.20;87.90;;;;;;5057892;28;20025;-61
2022/03/28 10:55:48;;;;;;;19.33;7.25;;;22.90;86.90;;;;;;5054139;28;20051;-61
2022/03/28 10:58:18;;;;;;;18.08;7.40;;;23.00;86.00;;;;;;5051570;28;20033;-61
2022/03/28 11:01:06;;;;;;;22.17;6.68;;;23.80;82.90;;;;;;5051702;28;20157;-61
2022/03/28 11:03:43;;;;;;;20.77;7.50;;;24.00;82.60;;;;;;5063297;28;20032;-61
2022/03/28 11:06:09;;;;;;;17.80;7.47;;;22.60;83.40;;;;;;5063022;28;20023;-61
2022/03/28 11:08:36;;;;;;;18.75;7.22;;;22.90;82.70;;;;;;5063995;28;20036;-61
2022/03/28 11:11:17;;;;;;;24.50;7.63;;;22.60;84.40;;;;;;5054700;28;20033;-61
2022/03/28 11:13:44;;;;;;;21.55;7.93;;;24.00;81.60;;;;;;5064650;28;20115;-61
2022/03/28 11:16:19;;;;;;;23.60;8.27;;;23.20;81.70;;;;;;5044783;28;20032;-61
2022/03/28 11:19:20;;;;;;;17.52;6.95;;;23.10;82.90;;;;;;5055406;28;20551;-61
2022/03/28 11:22:03;;;;;;;19.02;7.55;;;24.30;80.00;;;;;;5059666;28;20024;-61
2022/03/28 11:24:56;;;;;;;22.30;7.72;;;23.40;80.50;;;;;;5057898;28;20842;-61
2022/03/28 11:27:30;;;;;;;21.73;7.63;;;24.30;79.00;;;;;;5058211;28;20424;-61
2022/03/28 11:30:11;;;;;;;21.73;6.85;;;24.20;76.60;;;;;;5057305;28;20024;-61
2022/03/28 11:32:38;;;;;;;19.42;8.25;;;22.90;81.50;;;;;;5059627;28;20028;-61
2022/03/28 11:35:05;;;;;;;21.23;7.97;;;23.00;80.50;;;;;;5058214;28;20029;-61
2022/03/28 11:37:31;;;;;;;19.02;6.32;;;22.40;82.30;;;;;;5055768;28;20743;-61
2022/03/28 11:40:03;;;;;;;21.38;7.57;;;24.00;79.20;;;;;;5060219;28;20111;-61
2022/03/28 11:42:31;;;;;;;25.17;8.32;;;24.00;77.60;;;;;;5053785;28;20035;-61
2022/03/28 11:45:02;;;;;;;22.02;9.00;;;23.70;77.90;;;;;;5049286;28;20111;-61
2022/03/28 11:47:28;;;;;;;22.67;8.05;;;22.10;81.50;;;;;;5061217;28;20029;-61
2022/03/28 11:50:00;;;;;;;23.10;7.88;;;23.60;79.30;;;;;;5059247;28;20040;-61
2022/03/28 11:52:28;;;;;;;20.05;7.53;;;24.60;77.60;;;;;;5040187;28;20046;-61
2022/03/28 11:54:55;;;;;;;25.75;8.52;;;24.10;78.50;;;;;;5040478;28;20120;-61
2022/03/28 12:00:23;;;;;;;19.83;7.53;;;23.90;79.00;;;;;;5055647;28;20633;-61
2022/03/28 12:02:54;;;;;;;25.98;9.00;;;26.20;75.00;;;;;;5053935;28;20025;-61
2022/03/28 12:05:31;;;;;;;18.30;7.45;;;23.40;77.60;;;;;;5057360;28;20033;-61
2022/03/28 12:07:59;;;;;;;18.63;8.07;;;24.80;75.30;;;;;;5055113;28;20016;-61
2022/03/28 12:10:32;;;;;;;20.17;7.55;;;25.00;74.40;;;;;;5056929;28;20814;-61
2022/03/28 12:12:59;;;;;;;23.27;7.90;;;24.80;75.50;;;;;;5055751;28;20032;-61
2022/03/28 12:15:35;;;;;;;22.88;7.95;;;25.50;73.10;;;;;;5040671;28;20534;-61
2022/03/28 12:18:06;;;;;;;24.42;8.77;;;26.20;72.70;;;;;;5053675;28;20116;-61
2022/03/28 12:20:37;;;;;;;20.42;7.57;;;25.30;71.80;;;;;;5051977;28;20815;-62
2022/03/28 12:23:05;;;;;;;18.67;6.45;;;25.30;72.40;;;;;;5055061;28;20469;-61
2022/03/28 12:25:41;;;;;;;19.08;7.00;;;25.90;70.90;;;;;;5040401;28;20035;-61
2022/03/28 12:28:17;;;;;;;22.27;7.65;;;27.20;68.90;;;;;;5056808;28;20028;-61
2022/03/28 12:30:55;;;;;;;20.55;7.35;;;27.40;67.60;;;;;;5050097;28;20602;-61
2022/03/28 12:33:26;;;;;;;18.63;6.70;;;26.90;67.90;;;;;;5054949;28;20044;-61
2022/03/28 12:36:14;;;;;;;19.65;7.53;;;26.00;67.80;;;;;;5047956;28;20099;-61
2022/03/28 12:38:44;;;;;;;18.63;6.80;;;25.70;68.60;;;;;;5055572;28;20135;-61
2022/03/28 12:41:15;;;;;;;19.63;7.65;;;25.50;69.60;;;;;;5051264;28;20029;-62
2022/03/28 12:43:48;;;;;;;21.35;8.18;;;25.90;70.60;;;;;;5051875;28;20539;-61
2022/03/28 12:46:17;;;;;;;21.73;7.70;;;26.90;67.00;;;;;;5050384;28;20104;-61
2022/03/28 12:48:52;;;;;;;16.75;6.57;;;26.40;67.10;;;;;;5049547;28;20029;-61
2022/03/28 12:51:34;;;;;;;16.13;6.18;;;27.50;66.10;;;;;;5047609;28;20082;-61